Terminal Aerodrome Forecast
Issued by NWS

Home | Current Version | Previous Version | Text Only | Print | Product List | Glossary On
Versions: 1 2 3 4 5 6 7 8 9 10 11 12 13 14 15 16 17 18
849
FTUS43 KMQT 131540 CCA
TAFIWD
TAF COR
KIWD 131540Z 1316/1412 28011KT 1 1/2SM -SHSN BKN015
      TEMPO 1316/1317 3SM -SHSN
     FM131700 28010KT 3SM -SHSN BKN015
     FM131800 28007KT P6SM SKC
     FM132300 00000KT P6SM FEW150
      AMD LTD TO CLD VIS AND WIND=

USA.gov is the U.S. government's official web portal to all federal, state and local government web resources and services.